Time;durP1;ratioP1;P1;durP2;ratioP2;P2;SDS_P1;SDS_P2;PMS_P1;PMS_P2;Temp;Humidity;BMP_temperature;BMP_pressure;BME280_temperature;BME280_humidity;BME280_pressure;Samples;Min_cycle;Max_cycle;Signal;HPM_P1;HPM_P2
2022/04/27 00:02:15;;;;;;;17.50;13.75;;;10.10;99.90;;;;;;5114471;28;20296;-67
2022/04/27 00:04:42;;;;;;;17.85;13.20;;;10.20;99.90;;;;;;5114502;28;20777;-67
2022/04/27 00:07:09;;;;;;;16.15;13.02;;;10.20;99.90;;;;;;5114938;28;20410;-67
2022/04/27 00:09:36;;;;;;;16.42;13.02;;;10.20;99.90;;;;;;5114659;28;20631;-67
2022/04/27 00:12:03;;;;;;;17.73;12.70;;;10.20;99.90;;;;;;5114853;28;20224;-67
2022/04/27 00:14:33;;;;;;;18.95;13.95;;;10.30;99.90;;;;;;5114396;28;20225;-67
2022/04/27 00:17:00;;;;;;;16.58;13.88;;;10.30;99.90;;;;;;5115134;28;20198;-67
2022/04/27 00:19:27;;;;;;;15.00;12.40;;;10.30;99.90;;;;;;5114504;28;20205;-67
2022/04/27 00:21:54;;;;;;;16.55;12.40;;;10.20;99.90;;;;;;5114152;28;20280;-66
2022/04/27 00:24:21;;;;;;;15.27;12.73;;;10.20;99.90;;;;;;5114024;28;20232;-66
2022/04/27 00:26:48;;;;;;;17.15;13.27;;;10.20;99.90;;;;;;5114283;28;20213;-67
2022/04/27 00:29:14;;;;;;;18.38;13.70;;;10.10;99.90;;;;;;5113931;28;20209;-66
2022/04/27 00:31:42;;;;;;;16.58;13.13;;;10.10;99.90;;;;;;5113992;28;20211;-66
2022/04/27 00:34:09;;;;;;;16.95;13.23;;;10.10;99.90;;;;;;5114193;28;20222;-67
2022/04/27 00:36:36;;;;;;;16.83;14.18;;;10.10;99.90;;;;;;5115372;28;20200;-66
2022/04/27 00:39:05;;;;;;;19.85;15.25;;;10.10;99.90;;;;;;5115009;28;20288;-66
2022/04/27 00:41:32;;;;;;;17.15;13.48;;;10.20;99.90;;;;;;5114436;28;20201;-66
2022/04/27 00:43:59;;;;;;;20.15;14.45;;;10.20;99.90;;;;;;5119604;27;20719;-66
2022/04/27 00:46:26;;;;;;;17.90;14.38;;;10.10;99.90;;;;;;5136673;27;20220;-66
2022/04/27 00:48:54;;;;;;;23.15;16.33;;;10.10;99.90;;;;;;5136975;27;20278;-66
2022/04/27 00:51:24;;;;;;;19.50;14.60;;;10.10;99.90;;;;;;5136844;27;20224;-66
2022/04/27 00:53:52;;;;;;;22.13;15.95;;;10.10;99.90;;;;;;5136105;27;20231;-66
2022/04/27 00:56:21;;;;;;;21.85;15.60;;;10.10;99.90;;;;;;5136398;27;20200;-66
2022/04/27 00:58:48;;;;;;;22.55;15.77;;;10.10;99.90;;;;;;5136308;27;20201;-66
2022/04/27 01:01:15;;;;;;;20.95;16.40;;;10.10;99.90;;;;;;5135957;27;20201;-66
2022/04/27 01:03:42;;;;;;;20.15;15.10;;;10.10;99.90;;;;;;5136006;27;20231;-66
2022/04/27 01:06:11;;;;;;;21.65;16.42;;;10.00;99.90;;;;;;5136025;27;20299;-66
2022/04/27 01:08:38;;;;;;;22.00;15.75;;;10.00;99.90;;;;;;5136315;27;20201;-66
2022/04/27 01:11:06;;;;;;;22.30;16.58;;;10.00;99.90;;;;;;5135767;27;20201;-66
2022/04/27 01:13:34;;;;;;;22.30;16.15;;;9.90;99.90;;;;;;5136389;27;20311;-66
2022/04/27 01:16:01;;;;;;;22.85;16.38;;;10.00;99.90;;;;;;5135923;27;20236;-66
2022/04/27 01:18:28;;;;;;;20.95;16.88;;;10.10;99.90;;;;;;5136000;27;20544;-66
2022/04/27 01:20:57;;;;;;;26.27;18.48;;;10.00;99.90;;;;;;5135026;27;20205;-66
2022/04/27 01:23:23;;;;;;;24.50;17.70;;;9.80;99.90;;;;;;5135660;27;20308;-66
2022/04/27 01:25:52;;;;;;;25.98;17.70;;;9.80;99.90;;;;;;5135570;27;20204;-66
2022/04/27 01:28:21;;;;;;;26.73;18.17;;;9.70;99.90;;;;;;5135731;27;20224;-66
2022/04/27 01:30:55;;;;;;;27.35;18.17;;;9.70;99.90;;;;;;5135906;27;20204;-66
2022/04/27 01:33:22;;;;;;;27.17;18.65;;;9.80;99.90;;;;;;5135221;27;20225;-66
2022/04/27 01:35:49;;;;;;;28.70;19.40;;;9.90;99.90;;;;;;5135785;27;20208;-66
2022/04/27 01:38:18;;;;;;;27.58;18.33;;;9.90;99.90;;;;;;5135897;27;20536;-66
2022/04/27 01:40:44;;;;;;;24.73;18.10;;;10.10;99.90;;;;;;5135883;27;20249;-66
2022/04/27 01:43:14;;;;;;;25.25;18.08;;;10.10;99.90;;;;;;5135559;27;20225;-66
2022/04/27 01:45:42;;;;;;;24.95;18.25;;;10.10;99.90;;;;;;5135805;27;20211;-66
2022/04/27 01:48:10;;;;;;;26.38;19.10;;;10.20;99.90;;;;;;5135775;27;20220;-66
2022/04/27 01:50:37;;;;;;;25.52;18.08;;;10.10;99.90;;;;;;5135435;27;20205;-66
2022/04/27 01:55:50;;;;;;;26.05;19.20;;;10.20;99.90;;;;;;5135774;28;20199;-66
2022/04/27 01:58:17;;;;;;;25.40;18.60;;;10.10;99.90;;;;;;5135369;28;20597;-66
2022/04/27 02:00:46;;;;;;;29.58;20.10;;;10.10;99.90;;;;;;5135349;28;20295;-66
2022/04/27 02:03:13;;;;;;;27.92;18.83;;;10.20;99.90;;;;;;5134952;28;20698;-66
2022/04/27 02:05:39;;;;;;;27.85;18.92;;;10.20;99.90;;;;;;5136253;27;20204;-66
2022/04/27 02:08:07;;;;;;;29.13;19.40;;;10.20;99.90;;;;;;5135674;28;20216;-66
2022/04/27 02:10:34;;;;;;;27.48;19.65;;;10.30;99.90;;;;;;5135341;28;20681;-66
2022/04/27 02:13:03;;;;;;;30.25;20.08;;;10.30;99.90;;;;;;5135027;28;20206;-66
2022/04/27 02:15:30;;;;;;;28.38;20.02;;;10.30;99.90;;;;;;5135492;28;20204;-66
2022/04/27 02:17:56;;;;;;;31.15;21.42;;;10.20;99.90;;;;;;5136206;28;20197;-66
2022/04/27 02:20:24;;;;;;;29.08;20.10;;;10.20;99.90;;;;;;5135451;28;20205;-66
2022/04/27 02:22:51;;;;;;;29.92;19.70;;;10.20;99.90;;;;;;5135441;28;20200;-66
2022/04/27 02:25:18;;;;;;;28.27;18.60;;;10.20;99.90;;;;;;5135264;28;20666;-66
2022/04/27 02:27:44;;;;;;;30.27;20.83;;;10.20;99.90;;;;;;5135000;28;20694;-66
2022/04/27 02:30:14;;;;;;;29.38;18.40;;;10.20;99.90;;;;;;5134807;28;20247;-66
2022/04/27 02:32:41;;;;;;;29.33;19.83;;;10.20;99.90;;;;;;5138698;27;20201;-66
2022/04/27 02:35:09;;;;;;;27.30;19.50;;;10.20;99.90;;;;;;5139091;27;20252;-66
2022/04/27 02:37:37;;;;;;;28.67;20.02;;;10.20;99.90;;;;;;5139505;27;20199;-66
2022/04/27 02:40:06;;;;;;;26.90;19.52;;;10.10;99.90;;;;;;5139200;27;20204;-66
2022/04/27 02:42:32;;;;;;;27.27;18.42;;;10.20;99.90;;;;;;5139245;27;20204;-66
2022/04/27 02:44:59;;;;;;;27.15;19.23;;;10.20;99.90;;;;;;5138463;27;20221;-66
2022/04/27 02:47:27;;;;;;;26.38;18.98;;;10.30;99.90;;;;;;5138781;27;20749;-66
2022/04/27 02:52:38;;;;;;;28.55;19.02;;;10.20;99.90;;;;;;5138931;27;20270;-66
2022/04/27 02:55:06;;;;;;;29.80;20.17;;;10.20;99.90;;;;;;5138426;27;20234;-66
2022/04/27 02:57:33;;;;;;;30.20;20.50;;;10.00;99.90;;;;;;5138724;27;20201;-66
2022/04/27 03:00:00;;;;;;;25.02;18.65;;;10.00;99.90;;;;;;5138811;27;20236;-66
2022/04/27 03:02:28;;;;;;;27.73;19.73;;;10.10;99.90;;;;;;5138905;27;20205;-66
2022/04/27 03:04:55;;;;;;;25.45;18.20;;;10.20;99.90;;;;;;5138481;27;20307;-66
2022/04/27 03:07:21;;;;;;;25.75;18.25;;;10.20;99.90;;;;;;5138608;27;20228;-66
2022/04/27 03:09:48;;;;;;;26.35;19.27;;;10.10;99.90;;;;;;5138740;27;20287;-66
2022/04/27 03:12:16;;;;;;;27.40;19.60;;;10.00;99.90;;;;;;5138850;27;20667;-66
2022/04/27 03:14:43;;;;;;;27.30;18.20;;;10.00;99.90;;;;;;5138612;27;20311;-66
2022/04/27 03:17:09;;;;;;;25.73;18.75;;;10.10;99.90;;;;;;5138904;27;20203;-66
2022/04/27 03:19:38;;;;;;;26.17;19.30;;;10.10;99.90;;;;;;5138774;27;20205;-66
2022/04/27 03:22:05;;;;;;;24.85;18.67;;;10.10;99.90;;;;;;5138612;27;20701;-66
2022/04/27 03:24:32;;;;;;;26.23;19.75;;;10.20;99.90;;;;;;5138279;27;20331;-66
2022/04/27 03:26:59;;;;;;;28.42;20.15;;;10.10;99.90;;;;;;5138529;27;20208;-66
2022/04/27 03:29:25;;;;;;;27.30;19.80;;;9.90;99.90;;;;;;5138125;27;20241;-66
2022/04/27 03:31:52;;;;;;;30.63;20.30;;;9.80;99.90;;;;;;5138621;27;20196;-66
2022/04/27 03:34:19;;;;;;;30.67;20.90;;;9.70;99.90;;;;;;5138093;27;20231;-66
2022/04/27 03:36:47;;;;;;;28.65;20.45;;;9.70;99.90;;;;;;5137808;27;20212;-66
2022/04/27 03:39:14;;;;;;;28.45;19.45;;;9.70;99.90;;;;;;5138412;27;20566;-66
2022/04/27 03:41:41;;;;;;;31.85;20.83;;;9.60;99.90;;;;;;5138167;27;20296;-66
2022/04/27 03:44:08;;;;;;;30.65;21.52;;;9.50;99.90;;;;;;5136894;27;20312;-66
2022/04/27 03:46:34;;;;;;;28.65;20.08;;;9.50;99.90;;;;;;5138273;27;20203;-66
2022/04/27 03:49:01;;;;;;;27.92;19.10;;;9.40;99.90;;;;;;5137824;27;20291;-66
2022/04/27 03:51:28;;;;;;;29.92;20.65;;;9.50;99.90;;;;;;5138006;27;20292;-66
2022/04/27 03:53:56;;;;;;;29.35;21.38;;;9.40;99.90;;;;;;5137661;27;20220;-66
2022/04/27 03:56:23;;;;;;;31.10;19.80;;;9.40;99.90;;;;;;5138123;27;20226;-66
2022/04/27 03:58:50;;;;;;;35.85;22.08;;;9.40;99.90;;;;;;5137853;27;20197;-66
2022/04/27 04:01:17;;;;;;;30.58;20.38;;;9.30;99.90;;;;;;5137710;27;20201;-66
2022/04/27 04:03:43;;;;;;;32.30;21.20;;;9.40;99.90;;;;;;5137544;27;20221;-66
2022/04/27 04:06:10;;;;;;;32.00;21.33;;;9.40;99.90;;;;;;5137716;27;20228;-66
2022/04/27 04:08:37;;;;;;;33.25;21.73;;;9.40;99.90;;;;;;5137784;27;20221;-66
2022/04/27 04:11:05;;;;;;;29.02;20.08;;;9.60;99.90;;;;;;5137233;27;20211;-66
2022/04/27 04:13:32;;;;;;;28.27;19.05;;;9.70;99.90;;;;;;5137000;27;20220;-66
2022/04/27 04:15:59;;;;;;;28.23;19.75;;;9.80;99.90;;;;;;5137730;27;20243;-66
2022/04/27 04:18:25;;;;;;;27.35;18.90;;;10.00;99.90;;;;;;5137522;27;20552;-66
2022/04/27 04:20:52;;;;;;;26.42;19.73;;;10.10;99.90;;;;;;5137142;27;20209;-66
2022/04/27 04:23:19;;;;;;;27.35;19.20;;;10.30;99.90;;;;;;5137135;27;20227;-66
2022/04/27 04:28:31;;;;;;;24.55;17.83;;;10.50;99.90;;;;;;5137065;27;20231;-66
2022/04/27 04:31:00;;;;;;;27.20;18.63;;;10.50;99.90;;;;;;5137567;27;20204;-66
2022/04/27 04:33:27;;;;;;;24.85;17.90;;;10.60;99.90;;;;;;5136940;27;20224;-66
2022/04/27 04:35:54;;;;;;;26.42;17.80;;;10.50;99.90;;;;;;5137193;27;20662;-66
2022/04/27 04:38:21;;;;;;;23.02;18.20;;;10.50;99.90;;;;;;5137579;27;20207;-66
2022/04/27 04:40:48;;;;;;;30.95;20.20;;;10.50;99.90;;;;;;5137076;27;20287;-66
2022/04/27 04:43:15;;;;;;;29.60;20.20;;;10.50;99.90;;;;;;5136610;27;20228;-66
2022/04/27 04:45:44;;;;;;;27.20;19.77;;;10.50;99.90;;;;;;5136865;27;20599;-66
2022/04/27 04:48:11;;;;;;;26.40;18.35;;;10.40;99.90;;;;;;5136851;27;20315;-66
2022/04/27 04:50:38;;;;;;;29.38;19.27;;;10.40;99.90;;;;;;5137182;27;20223;-65
2022/04/27 04:53:05;;;;;;;30.95;19.63;;;10.40;99.90;;;;;;5136580;27;20292;-66
2022/04/27 04:55:32;;;;;;;27.10;19.60;;;10.30;99.90;;;;;;5136834;27;20558;-66
2022/04/27 04:57:59;;;;;;;34.42;20.05;;;10.20;99.90;;;;;;5136621;27;20222;-66
2022/04/27 05:00:26;;;;;;;31.95;21.80;;;10.20;99.90;;;;;;5136942;27;20200;-66
2022/04/27 05:02:54;;;;;;;33.00;21.70;;;10.00;99.90;;;;;;5136784;27;20211;-66
2022/04/27 05:05:21;;;;;;;31.27;21.00;;;10.00;99.90;;;;;;5136575;27;20207;-66
2022/04/27 05:07:49;;;;;;;31.85;21.08;;;9.90;99.90;;;;;;5136187;27;20574;-66
2022/04/27 05:10:15;;;;;;;35.60;22.67;;;10.00;99.90;;;;;;5136517;27;20211;-66
2022/04/27 05:12:42;;;;;;;41.45;24.77;;;10.00;99.90;;;;;;5136204;27;20272;-66
2022/04/27 05:15:11;;;;;;;36.58;24.45;;;9.90;99.90;;;;;;5135696;27;20226;-66
2022/04/27 05:17:38;;;;;;;35.42;22.08;;;9.90;99.90;;;;;;5136535;27;20243;-66
2022/04/27 05:20:08;;;;;;;34.50;22.65;;;10.00;99.90;;;;;;5136344;27;20204;-66
2022/04/27 05:22:38;;;;;;;37.45;23.73;;;10.10;99.90;;;;;;5136304;27;20201;-66
2022/04/27 05:25:05;;;;;;;35.08;22.75;;;10.20;99.90;;;;;;5135744;27;20246;-66
2022/04/27 05:27:32;;;;;;;34.40;22.67;;;10.20;99.90;;;;;;5135959;27;20200;-66
2022/04/27 05:32:43;;;;;;;38.05;23.77;;;10.30;99.90;;;;;;5136124;27;20692;-66
2022/04/27 05:35:12;;;;;;;33.47;22.90;;;10.30;99.90;;;;;;5135731;27;20227;-66
2022/04/27 05:37:39;;;;;;;33.10;22.98;;;10.40;99.90;;;;;;5136126;27;20559;-66
2022/04/27 05:40:07;;;;;;;32.83;22.60;;;10.40;99.90;;;;;;5136033;27;20287;-66
2022/04/27 05:42:35;;;;;;;31.25;21.48;;;10.50;99.90;;;;;;5135914;27;20674;-66
2022/04/27 05:45:02;;;;;;;34.03;22.75;;;10.60;99.90;;;;;;5135587;27;20698;-66
2022/04/27 05:47:29;;;;;;;33.55;22.73;;;10.70;99.90;;;;;;5136089;27;20215;-66
2022/04/27 05:49:55;;;;;;;27.95;20.85;;;10.80;99.90;;;;;;5135856;27;20331;-66
2022/04/27 05:52:24;;;;;;;30.20;21.40;;;10.80;99.90;;;;;;5136008;27;20207;-66
2022/04/27 05:54:51;;;;;;;32.03;22.40;;;10.90;99.90;;;;;;5135806;28;20316;-66
2022/04/27 05:57:18;;;;;;;31.65;22.05;;;10.80;99.90;;;;;;5135921;28;20201;-66
2022/04/27 05:59:45;;;;;;;32.17;22.40;;;10.70;99.90;;;;;;5135740;28;20196;-66
2022/04/27 06:02:11;;;;;;;32.88;22.33;;;10.60;99.90;;;;;;5135751;28;20197;-66
2022/04/27 06:04:38;;;;;;;36.50;23.17;;;10.50;99.90;;;;;;5135018;28;20320;-66
2022/04/27 06:07:06;;;;;;;33.17;22.35;;;10.40;99.90;;;;;;5137760;27;20196;-66
2022/04/27 06:09:34;;;;;;;35.65;23.35;;;10.50;99.90;;;;;;5139819;27;20262;-66
2022/04/27 06:12:01;;;;;;;36.67;23.42;;;10.40;99.90;;;;;;5139926;27;20236;-66
2022/04/27 06:14:28;;;;;;;34.97;23.60;;;10.40;99.90;;;;;;5139477;27;20228;-66
2022/04/27 06:16:54;;;;;;;33.33;22.30;;;10.40;99.90;;;;;;5139559;27;20738;-66
2022/04/27 06:19:21;;;;;;;33.95;22.80;;;10.40;99.90;;;;;;5139253;27;20676;-66
2022/04/27 06:21:48;;;;;;;30.48;21.83;;;10.40;99.90;;;;;;5139553;27;20212;-66
2022/04/27 06:24:15;;;;;;;32.85;23.13;;;10.50;99.90;;;;;;5139274;27;20225;-66
2022/04/27 06:26:44;;;;;;;33.45;21.80;;;10.50;99.90;;;;;;5139597;27;20253;-66
2022/04/27 06:29:11;;;;;;;31.15;20.90;;;10.60;99.90;;;;;;5138823;27;20291;-66
2022/04/27 06:31:38;;;;;;;32.45;22.00;;;10.60;99.90;;;;;;5139293;27;20292;-66
2022/04/27 06:34:04;;;;;;;27.73;20.88;;;10.60;99.90;;;;;;5139081;27;20307;-66
2022/04/27 06:36:31;;;;;;;29.70;20.67;;;10.70;99.90;;;;;;5139053;27;20296;-66
2022/04/27 06:38:58;;;;;;;29.17;19.45;;;10.70;99.90;;;;;;5138949;27;20365;-66
2022/04/27 06:41:25;;;;;;;26.50;19.10;;;10.90;99.90;;;;;;5138869;27;20227;-66
2022/04/27 06:43:53;;;;;;;26.98;18.48;;;11.00;99.90;;;;;;5138330;27;20217;-66
2022/04/27 06:46:20;;;;;;;28.08;19.45;;;11.10;99.90;;;;;;5138957;27;20292;-66
2022/04/27 06:48:47;;;;;;;26.83;18.98;;;11.20;99.90;;;;;;5138527;27;20224;-66
2022/04/27 06:51:15;;;;;;;25.63;19.70;;;11.30;99.90;;;;;;5138834;27;20197;-68
2022/04/27 06:53:42;;;;;;;26.55;19.00;;;11.00;99.90;;;;;;5137974;27;20308;-68
2022/04/27 06:56:09;;;;;;;27.33;18.92;;;10.90;99.90;;;;;;5138693;27;20636;-68
2022/04/27 06:58:36;;;;;;;24.90;17.77;;;10.90;99.90;;;;;;5138471;27;20200;-68
2022/04/27 07:01:05;;;;;;;26.27;18.92;;;10.90;99.90;;;;;;5138297;27;20196;-66
2022/04/27 07:03:33;;;;;;;28.70;19.52;;;10.70;99.90;;;;;;5138068;27;20216;-68
2022/04/27 07:06:00;;;;;;;25.75;18.55;;;10.70;99.90;;;;;;5138117;27;20205;-68
2022/04/27 07:08:28;;;;;;;27.98;17.92;;;10.90;99.90;;;;;;5138354;27;20319;-68
2022/04/27 07:10:55;;;;;;;23.33;17.25;;;10.90;99.90;;;;;;5138359;27;20211;-68
2022/04/27 07:13:22;;;;;;;24.08;16.40;;;10.80;99.90;;;;;;5137941;27;20232;-68
2022/04/27 07:15:49;;;;;;;21.80;16.05;;;10.90;99.90;;;;;;5138474;27;20204;-65
2022/04/27 07:18:17;;;;;;;19.00;15.07;;;10.80;99.90;;;;;;5137109;27;20303;-66
2022/04/27 07:20:44;;;;;;;22.15;15.90;;;10.80;99.90;;;;;;5138267;27;20196;-66
2022/04/27 07:23:11;;;;;;;20.00;15.50;;;10.90;99.90;;;;;;5138103;27;20814;-66
2022/04/27 07:25:38;;;;;;;21.95;15.88;;;11.00;99.90;;;;;;5138075;27;20228;-65
2022/04/27 07:28:05;;;;;;;20.55;14.77;;;10.90;99.90;;;;;;5138088;27;20200;-65
2022/04/27 07:30:32;;;;;;;19.10;15.13;;;10.90;99.90;;;;;;5138429;27;20220;-66
2022/04/27 07:32:58;;;;;;;20.80;15.60;;;10.80;99.90;;;;;;5137956;27;20207;-68
2022/04/27 07:35:27;;;;;;;17.02;13.45;;;10.70;99.90;;;;;;5138049;27;20602;-65
2022/04/27 07:37:53;;;;;;;18.33;14.30;;;10.80;99.90;;;;;;5138218;27;20196;-66
2022/04/27 07:40:20;;;;;;;18.17;14.02;;;10.90;99.90;;;;;;5138091;27;20203;-66
2022/04/27 07:42:48;;;;;;;18.02;14.23;;;11.00;99.90;;;;;;5138179;27;20578;-65
2022/04/27 07:45:14;;;;;;;17.25;13.93;;;11.20;99.90;;;;;;5137991;27;20206;-66
2022/04/27 07:47:43;;;;;;;18.58;12.93;;;11.40;99.90;;;;;;5137830;27;20631;-66
2022/04/27 07:50:11;;;;;;;16.35;12.38;;;11.50;99.90;;;;;;5138140;27;20645;-66
2022/04/27 07:52:39;;;;;;;17.13;13.23;;;11.70;99.90;;;;;;5137737;27;20200;-66
2022/04/27 07:55:07;;;;;;;17.38;13.48;;;11.80;99.90;;;;;;5137784;27;20326;-66
2022/04/27 07:57:35;;;;;;;14.88;11.98;;;11.90;99.90;;;;;;5137480;27;20208;-66
2022/04/27 08:00:06;;;;;;;15.27;12.15;;;12.00;99.90;;;;;;5137731;27;20207;-66
2022/04/27 08:02:33;;;;;;;15.95;12.25;;;12.30;99.90;;;;;;5137695;27;20201;-66
2022/04/27 08:05:01;;;;;;;16.77;12.07;;;12.50;99.90;;;;;;5137263;27;20264;-65
2022/04/27 08:07:35;;;;;;;14.15;12.15;;;12.90;99.90;;;;;;5137599;27;20201;-66
2022/04/27 08:10:11;;;;;;;15.68;12.10;;;13.30;99.90;;;;;;5137437;27;20225;-66
2022/04/27 08:12:40;;;;;;;13.20;11.18;;;13.80;99.90;;;;;;5137347;27;20301;-66
2022/04/27 08:15:08;;;;;;;14.18;12.30;;;14.10;99.90;;;;;;5136994;27;20704;-65
2022/04/27 08:17:35;;;;;;;13.63;12.18;;;14.00;99.90;;;;;;5137057;27;20664;-66
2022/04/27 08:22:47;;;;;;;14.93;11.88;;;14.20;99.90;;;;;;5136915;27;20197;-66
2022/04/27 08:25:15;;;;;;;13.80;11.32;;;14.10;99.90;;;;;;5136967;27;20204;-66
2022/04/27 08:27:42;;;;;;;13.05;11.35;;;14.00;99.90;;;;;;5137124;27;20560;-65
2022/04/27 08:30:09;;;;;;;15.15;11.52;;;14.00;99.90;;;;;;5136494;27;20225;-66
2022/04/27 08:32:36;;;;;;;14.43;11.98;;;13.90;99.90;;;;;;5136770;27;20212;-66
2022/04/27 08:35:03;;;;;;;14.90;12.15;;;13.80;99.90;;;;;;5136753;27;20222;-66
2022/04/27 08:37:29;;;;;;;15.93;12.48;;;13.90;99.90;;;;;;5136988;27;20215;-66
2022/04/27 08:39:58;;;;;;;15.80;12.40;;;14.00;99.90;;;;;;5136533;27;20219;-66
2022/04/27 08:42:26;;;;;;;15.68;12.57;;;14.40;99.90;;;;;;5136696;27;20224;-66
2022/04/27 08:44:53;;;;;;;13.73;11.65;;;14.70;99.90;;;;;;5135988;27;20219;-66
2022/04/27 08:47:20;;;;;;;13.55;12.07;;;15.10;99.90;;;;;;5136468;27;20202;-66
2022/04/27 08:49:47;;;;;;;14.30;12.00;;;15.20;99.90;;;;;;5136362;27;20604;-66
2022/04/27 08:52:14;;;;;;;13.13;11.73;;;15.60;99.90;;;;;;5136512;27;20294;-66
2022/04/27 08:54:41;;;;;;;12.93;11.27;;;16.00;99.90;;;;;;5136223;27;20287;-66
2022/04/27 08:57:08;;;;;;;13.40;11.30;;;16.00;99.90;;;;;;5136213;27;20204;-66
2022/04/27 08:59:36;;;;;;;12.35;11.02;;;16.20;99.90;;;;;;5136184;27;20203;-66
2022/04/27 09:02:25;;;;;;;14.80;11.68;;;16.20;99.90;;;;;;5135997;27;20204;-66
2022/04/27 09:05:10;;;;;;;12.77;11.32;;;16.20;99.90;;;;;;5135827;27;20298;-66
2022/04/27 09:07:38;;;;;;;12.02;10.48;;;16.00;99.90;;;;;;5136067;27;20210;-66
2022/04/27 09:10:07;;;;;;;12.30;10.70;;;16.00;99.90;;;;;;5135629;27;20217;-66
2022/04/27 09:12:35;;;;;;;13.70;12.07;;;16.00;99.90;;;;;;5135866;27;20208;-66
2022/04/27 09:15:08;;;;;;;12.40;10.88;;;15.70;99.90;;;;;;5135885;27;20235;-66
2022/04/27 09:23:06;;;;;;;9.13;8.20;;;15.20;99.90;;;;;;5135853;27;20207;-66
2022/04/27 09:25:37;;;;;;;10.13;8.50;;;14.90;99.90;;;;;;5135830;27;20199;-66
2022/04/27 09:28:05;;;;;;;9.90;8.88;;;14.50;99.90;;;;;;5135740;27;20204;-66
2022/04/27 09:30:34;;;;;;;9.73;8.57;;;14.50;99.90;;;;;;5135515;27;20257;-66
2022/04/27 09:33:01;;;;;;;8.90;8.00;;;14.30;99.90;;;;;;5134930;27;20716;-66
2022/04/27 09:35:32;;;;;;;8.57;7.00;;;14.20;99.90;;;;;;5136156;27;20291;-66
2022/04/27 09:38:13;;;;;;;8.40;7.50;;;14.20;99.90;;;;;;5125870;27;20677;-66
2022/04/27 09:40:44;;;;;;;9.10;8.10;;;14.10;99.90;;;;;;5114652;27;20564;-67
2022/04/27 09:43:12;;;;;;;10.85;7.75;;;14.10;99.90;;;;;;5112792;28;20313;-66
2022/04/27 09:45:41;;;;;;;6.88;6.18;;;14.30;99.90;;;;;;5113505;28;20813;-66
2022/04/27 09:48:11;;;;;;;7.28;6.57;;;14.30;99.90;;;;;;5114411;28;20198;-66
2022/04/27 09:50:49;;;;;;;5.75;5.25;;;14.40;99.90;;;;;;5113182;28;20226;-67
2022/04/27 09:53:16;;;;;;;7.35;5.50;;;14.60;99.90;;;;;;5112744;28;20734;-67
2022/04/27 09:55:46;;;;;;;6.25;5.40;;;14.50;99.90;;;;;;5113069;28;20203;-66
2022/04/27 09:58:14;;;;;;;6.03;5.43;;;14.50;99.90;;;;;;5113811;28;20210;-66
2022/04/27 10:00:44;;;;;;;6.30;5.70;;;14.40;99.90;;;;;;5113345;28;20204;-67
2022/04/27 10:03:15;;;;;;;5.85;5.25;;;14.40;99.90;;;;;;5113030;28;20240;-67
2022/04/27 10:05:43;;;;;;;5.82;5.22;;;14.60;99.90;;;;;;5112986;28;20254;-66
2022/04/27 10:08:10;;;;;;;5.82;5.22;;;14.80;99.90;;;;;;5113126;28;20206;-67
2022/04/27 10:10:39;;;;;;;6.10;5.60;;;15.00;99.90;;;;;;5112821;28;20224;-67
2022/04/27 10:13:11;;;;;;;5.85;5.35;;;15.20;99.90;;;;;;5112875;28;20210;-67
2022/04/27 10:15:42;;;;;;;5.90;5.30;;;15.30;99.90;;;;;;5112956;28;20622;-67
2022/04/27 10:18:11;;;;;;;6.35;5.75;;;15.40;99.90;;;;;;5113214;28;20634;-67
2022/04/27 10:20:38;;;;;;;5.70;5.20;;;15.60;99.90;;;;;;5112724;28;20196;-67
2022/04/27 10:23:19;;;;;;;4.75;4.35;;;15.70;99.90;;;;;;5112649;28;20213;-67
2022/04/27 10:26:12;;;;;;;5.45;4.95;;;15.90;99.70;;;;;;5113059;28;20209;-67
2022/04/27 10:28:43;;;;;;;5.30;4.80;;;16.10;99.30;;;;;;5112950;28;20220;-66
2022/04/27 10:31:10;;;;;;;5.28;4.78;;;16.20;99.40;;;;;;5112600;28;20281;-67
2022/04/27 10:33:43;;;;;;;5.88;5.38;;;16.20;98.20;;;;;;5112527;28;20282;-66
2022/04/27 10:36:38;;;;;;;5.95;5.45;;;16.00;98.10;;;;;;5113554;28;20206;-67
2022/04/27 10:39:32;;;;;;;5.32;4.82;;;16.00;98.60;;;;;;5114066;28;20563;-67
2022/04/27 10:42:32;;;;;;;5.13;4.60;;;16.10;99.30;;;;;;5077549;28;20208;-67
2022/04/27 10:45:09;;;;;;;5.07;4.68;;;15.90;98.90;;;;;;5113602;28;20315;-67
2022/04/27 10:47:41;;;;;;;4.90;4.50;;;15.80;98.10;;;;;;5114198;28;20231;-67
2022/04/27 10:50:37;;;;;;;4.80;4.40;;;15.80;98.70;;;;;;5113588;28;20647;-67
2022/04/27 10:53:23;;;;;;;5.05;4.57;;;15.90;98.80;;;;;;5115248;28;20545;-67
2022/04/27 10:55:53;;;;;;;4.78;4.38;;;15.80;98.30;;;;;;5117438;28;20200;-67
2022/04/27 10:58:34;;;;;;;7.00;5.10;;;15.70;99.10;;;;;;5117337;28;20200;-67
2022/04/27 11:01:18;;;;;;;5.80;5.30;;;15.70;98.60;;;;;;5117552;28;20202;-67
2022/04/27 11:03:54;;;;;;;5.32;4.93;;;15.60;98.30;;;;;;5117150;28;20219;-67
2022/04/27 11:06:23;;;;;;;6.07;5.57;;;15.50;98.30;;;;;;5117422;28;20207;-67
2022/04/27 11:09:03;;;;;;;5.85;5.35;;;15.40;98.90;;;;;;5117188;28;20212;-66
2022/04/27 11:11:31;;;;;;;6.13;5.63;;;15.40;98.70;;;;;;5117099;28;20239;-67
2022/04/27 11:14:00;;;;;;;6.30;5.70;;;15.50;98.80;;;;;;5116678;28;20315;-66
2022/04/27 11:16:27;;;;;;;7.10;5.82;;;15.50;98.20;;;;;;5117021;28;20207;-67
2022/04/27 11:18:56;;;;;;;5.90;5.40;;;15.50;98.20;;;;;;5116896;28;20210;-67
2022/04/27 11:21:26;;;;;;;5.93;5.43;;;15.60;99.30;;;;;;5116872;28;20196;-67
2022/04/27 11:23:54;;;;;;;5.90;5.40;;;15.70;99.50;;;;;;5116515;28;20311;-66
2022/04/27 11:26:21;;;;;;;6.70;6.10;;;16.00;98.60;;;;;;5116740;27;20208;-67
2022/04/27 11:28:48;;;;;;;6.57;5.97;;;16.40;99.00;;;;;;5116641;28;20209;-67
2022/04/27 11:31:16;;;;;;;7.55;6.60;;;16.60;97.80;;;;;;5116648;28;20225;-67
2022/04/27 11:33:43;;;;;;;7.47;6.80;;;17.00;97.70;;;;;;5116418;28;20312;-67
2022/04/27 11:36:22;;;;;;;7.00;6.40;;;17.20;96.90;;;;;;5116675;28;20201;-67
2022/04/27 11:38:51;;;;;;;7.30;6.70;;;17.40;96.20;;;;;;5116431;28;20205;-67
2022/04/27 11:41:20;;;;;;;6.88;6.38;;;17.60;95.20;;;;;;5116505;28;20194;-67
2022/04/27 11:43:48;;;;;;;6.60;6.07;;;17.70;94.20;;;;;;5116235;28;20252;-67
2022/04/27 11:46:15;;;;;;;7.40;6.70;;;17.80;93.50;;;;;;5116458;28;20210;-67
2022/04/27 11:48:47;;;;;;;6.75;6.20;;;17.90;93.40;;;;;;5116152;28;20677;-67
2022/04/27 11:51:14;;;;;;;6.20;5.70;;;18.00;94.10;;;;;;5116109;28;20694;-67
2022/04/27 11:53:45;;;;;;;6.65;6.05;;;18.20;93.80;;;;;;5115954;28;20299;-67
2022/04/27 11:56:13;;;;;;;6.57;5.90;;;18.30;93.10;;;;;;5116174;28;20203;-67
2022/04/27 11:58:40;;;;;;;7.03;6.43;;;18.40;92.00;;;;;;5116185;28;20198;-67
2022/04/27 12:01:08;;;;;;;6.93;6.32;;;18.30;92.00;;;;;;5116022;28;20197;-67
2022/04/27 12:03:41;;;;;;;6.60;6.10;;;18.20;92.80;;;;;;5115507;28;20226;-67
2022/04/27 12:06:08;;;;;;;6.28;5.78;;;18.20;92.30;;;;;;5116031;28;20550;-67
2022/04/27 12:08:42;;;;;;;6.50;6.00;;;18.30;92.10;;;;;;5116072;28;20560;-67
2022/04/27 12:11:08;;;;;;;6.20;5.70;;;18.20;91.30;;;;;;5115633;28;20218;-67
2022/04/27 12:13:37;;;;;;;6.30;5.90;;;18.50;92.50;;;;;;5115811;28;20649;-67
2022/04/27 12:16:05;;;;;;;6.32;5.72;;;18.40;92.10;;;;;;5115875;28;20560;-67
2022/04/27 12:18:32;;;;;;;6.73;6.13;;;18.60;91.50;;;;;;5115890;27;20207;-67
2022/04/27 12:20:59;;;;;;;7.80;7.15;;;18.60;90.60;;;;;;5115693;28;20440;-67
2022/04/27 12:23:37;;;;;;;6.50;6.00;;;18.50;90.50;;;;;;5115491;28;20226;-67
2022/04/27 12:26:06;;;;;;;7.15;6.65;;;18.20;91.00;;;;;;5115805;28;20587;-67
2022/04/27 12:28:44;;;;;;;8.02;7.05;;;18.20;91.20;;;;;;5115540;28;20213;-67
2022/04/27 12:31:10;;;;;;;7.07;6.47;;;17.90;92.10;;;;;;5115316;28;20237;-67
2022/04/27 12:33:42;;;;;;;6.93;6.43;;;17.60;91.80;;;;;;5115259;28;20221;-67
2022/04/27 12:38:59;;;;;;;5.65;5.15;;;17.10;92.80;;;;;;5115547;28;20220;-68
2022/04/27 12:41:31;;;;;;;6.82;6.22;;;17.00;92.80;;;;;;5115190;27;20259;-68
2022/04/27 12:44:05;;;;;;;6.20;5.70;;;17.10;93.60;;;;;;5113659;28;20225;-68
2022/04/27 12:46:32;;;;;;;7.78;5.90;;;17.10;92.80;;;;;;5113966;28;20289;-67
2022/04/27 12:49:03;;;;;;;5.95;5.45;;;17.00;92.50;;;;;;5114331;28;20205;-68
2022/04/27 12:51:32;;;;;;;6.45;5.95;;;17.00;93.80;;;;;;5113694;28;20224;-67
2022/04/27 12:53:58;;;;;;;6.65;6.07;;;16.70;94.00;;;;;;5113264;27;20225;-68
2022/04/27 12:56:32;;;;;;;6.60;6.10;;;16.60;93.60;;;;;;5113390;28;20215;-68
2022/04/27 12:59:04;;;;;;;7.47;6.88;;;16.40;94.90;;;;;;5113389;28;20611;-68
2022/04/27 13:01:31;;;;;;;6.40;5.90;;;16.30;95.10;;;;;;5113879;28;20200;-68
2022/04/27 13:03:58;;;;;;;6.90;6.30;;;15.90;94.80;;;;;;5113476;28;20227;-68